Time;durP1;ratioP1;P1;durP2;ratioP2;P2;SDS_P1;SDS_P2;PMS_P1;PMS_P2;Temp;Humidity;BMP_temperature;BMP_pressure;BME280_temperature;BME280_humidity;BME280_pressure;Samples;Min_cycle;Max_cycle;Signal;HPM_P1;HPM_P2
2023/11/14 00:02:01;;;;;;;2.73;1.47;;;23.00;70.50;;;;;;5056136;28;20465;-84
2023/11/14 00:04:29;;;;;;;4.20;1.97;;;23.00;70.50;;;;;;5055984;28;20516;-84
2023/11/14 00:06:56;;;;;;;2.50;1.27;;;23.00;70.60;;;;;;5056108;28;20441;-84
2023/11/14 00:09:23;;;;;;;2.20;1.40;;;23.00;70.50;;;;;;5056632;28;20472;-84
2023/11/14 00:11:50;;;;;;;2.47;1.60;;;23.00;70.60;;;;;;5056419;28;20548;-85
2023/11/14 00:14:17;;;;;;;1.80;1.27;;;23.00;70.50;;;;;;5056423;28;20469;-85
2023/11/14 00:16:44;;;;;;;3.23;1.40;;;23.00;70.50;;;;;;5056494;28;20465;-85
2023/11/14 00:19:11;;;;;;;2.07;1.23;;;23.00;70.50;;;;;;5056855;28;20484;-84
2023/11/14 00:21:39;;;;;;;1.80;1.40;;;23.00;70.60;;;;;;5056538;28;20437;-84
2023/11/14 00:24:08;;;;;;;2.33;1.57;;;22.90;70.50;;;;;;5055855;28;20451;-84
2023/11/14 00:26:34;;;;;;;1.87;1.23;;;22.90;70.60;;;;;;5056248;28;20441;-84
2023/11/14 00:29:01;;;;;;;1.43;1.10;;;22.90;70.60;;;;;;5056245;28;20452;-84
2023/11/14 00:31:29;;;;;;;1.70;1.17;;;22.90;70.60;;;;;;5056078;28;20468;-84
2023/11/14 00:33:56;;;;;;;1.83;1.30;;;23.00;70.60;;;;;;5055849;28;20441;-84
2023/11/14 00:36:23;;;;;;;1.50;1.10;;;22.90;70.50;;;;;;5056047;28;20448;-84
2023/11/14 00:38:51;;;;;;;2.47;1.30;;;22.90;70.50;;;;;;5055888;28;20992;-84
2023/11/14 00:41:17;;;;;;;2.27;1.40;;;22.90;70.50;;;;;;5055924;28;20532;-84
2023/11/14 00:43:45;;;;;;;2.37;1.50;;;22.90;70.60;;;;;;5056292;28;20440;-85
2023/11/14 00:46:12;;;;;;;2.40;1.20;;;22.90;70.60;;;;;;5055932;28;20441;-84
2023/11/14 00:48:39;;;;;;;2.00;1.30;;;22.80;70.50;;;;;;5055691;28;20437;-85
2023/11/14 00:51:06;;;;;;;1.93;1.27;;;22.80;70.50;;;;;;5055095;28;20437;-85
2023/11/14 00:53:33;;;;;;;1.83;1.40;;;22.80;70.50;;;;;;5055827;28;20537;-85
2023/11/14 00:56:01;;;;;;;1.70;1.20;;;22.90;70.70;;;;;;5055612;28;20443;-85
2023/11/14 00:58:27;;;;;;;1.63;1.17;;;22.80;70.50;;;;;;5055656;28;20469;-83
2023/11/14 01:00:55;;;;;;;1.73;1.20;;;22.80;70.50;;;;;;5055843;28;20555;-84
2023/11/14 01:03:24;;;;;;;3.13;1.43;;;22.80;70.50;;;;;;5055674;28;20463;-85
2023/11/14 01:05:52;;;;;;;3.20;1.37;;;22.80;70.50;;;;;;5056142;28;20442;-85
2023/11/14 01:08:19;;;;;;;2.03;1.47;;;22.80;70.50;;;;;;5055768;28;20475;-85
2023/11/14 01:10:47;;;;;;;5.60;1.87;;;22.80;70.60;;;;;;5055222;28;20442;-84
2023/11/14 01:13:15;;;;;;;2.43;1.10;;;22.70;70.60;;;;;;5055457;28;20440;-85
2023/11/14 01:15:42;;;;;;;2.23;1.20;;;22.70;70.50;;;;;;5055285;28;20939;-84
2023/11/14 01:18:09;;;;;;;2.00;1.23;;;22.70;70.50;;;;;;5055382;28;20536;-84
2023/11/14 01:20:36;;;;;;;2.37;1.33;;;22.70;70.60;;;;;;5055310;28;20473;-84
2023/11/14 01:23:03;;;;;;;2.07;1.60;;;22.70;70.70;;;;;;5054420;28;20524;-85
2023/11/14 01:25:30;;;;;;;1.97;1.40;;;22.70;70.70;;;;;;5055161;28;20442;-84
2023/11/14 01:27:57;;;;;;;2.50;1.63;;;22.70;70.70;;;;;;5054908;28;20526;-84
2023/11/14 01:30:25;;;;;;;3.30;1.37;;;22.70;70.70;;;;;;5054995;28;20449;-85
2023/11/14 01:32:52;;;;;;;1.47;1.00;;;22.70;70.70;;;;;;5054892;28;20548;-84
2023/11/14 01:35:19;;;;;;;1.40;1.10;;;22.80;70.70;;;;;;5055171;28;20484;-84
2023/11/14 01:37:46;;;;;;;2.57;1.40;;;22.80;70.60;;;;;;5054903;28;20429;-84
2023/11/14 01:40:13;;;;;;;2.73;1.30;;;22.70;70.60;;;;;;5054789;28;20485;-84
2023/11/14 01:42:40;;;;;;;1.87;1.47;;;22.70;70.60;;;;;;5055175;28;20807;-84
2023/11/14 01:45:07;;;;;;;2.37;1.20;;;22.60;70.50;;;;;;5054871;28;20455;-84
2023/11/14 01:47:35;;;;;;;3.40;1.77;;;22.70;70.60;;;;;;5054785;28;20528;-84
2023/11/14 01:50:03;;;;;;;1.80;1.23;;;22.70;70.50;;;;;;5054769;28;20433;-84
2023/11/14 01:52:30;;;;;;;2.53;1.33;;;22.70;70.60;;;;;;5054703;28;20456;-84
2023/11/14 01:54:57;;;;;;;1.67;1.13;;;22.70;70.70;;;;;;5054599;28;20433;-84
2023/11/14 01:57:23;;;;;;;3.27;1.37;;;22.60;70.70;;;;;;5054651;28;20430;-85
2023/11/14 01:59:50;;;;;;;2.47;1.53;;;22.60;70.70;;;;;;5054371;28;20492;-84
2023/11/14 02:02:18;;;;;;;2.70;1.30;;;22.60;70.70;;;;;;5054455;28;20552;-84
2023/11/14 02:04:48;;;;;;;2.83;1.07;;;22.70;70.70;;;;;;5054439;28;20441;-84
2023/11/14 02:07:15;;;;;;;1.30;1.20;;;22.70;70.60;;;;;;5054332;28;20445;-84
2023/11/14 02:09:42;;;;;;;2.37;1.40;;;22.60;70.50;;;;;;5054505;28;20528;-85
2023/11/14 02:12:09;;;;;;;1.50;1.20;;;22.60;70.50;;;;;;5053889;28;20571;-85
2023/11/14 02:14:36;;;;;;;1.70;1.03;;;22.70;70.60;;;;;;5054248;28;20988;-84
2023/11/14 02:17:03;;;;;;;2.30;1.43;;;22.70;70.60;;;;;;5054142;28;20857;-84
2023/11/14 02:19:31;;;;;;;2.60;1.60;;;22.70;70.60;;;;;;5054096;28;20999;-84
2023/11/14 02:21:59;;;;;;;2.40;1.70;;;22.60;70.50;;;;;;5053745;28;20537;-85
2023/11/14 02:24:28;;;;;;;1.97;1.10;;;22.70;70.60;;;;;;5054018;28;20503;-84
2023/11/14 02:26:56;;;;;;;1.37;1.20;;;22.70;70.50;;;;;;5054053;28;20459;-84
2023/11/14 02:29:24;;;;;;;3.00;1.20;;;22.70;70.60;;;;;;5053990;28;20520;-84
2023/11/14 02:31:52;;;;;;;2.60;1.40;;;22.70;70.50;;;;;;5053760;28;20895;-84
2023/11/14 02:34:19;;;;;;;2.50;1.40;;;22.70;70.50;;;;;;5054156;28;20433;-84
2023/11/14 02:36:45;;;;;;;2.40;1.20;;;22.70;70.50;;;;;;5053933;28;20516;-84
2023/11/14 02:39:13;;;;;;;1.93;1.50;;;22.70;70.40;;;;;;5053944;28;20587;-84
2023/11/14 02:41:39;;;;;;;3.20;1.33;;;22.70;70.40;;;;;;5053707;28;20429;-84
2023/11/14 02:44:08;;;;;;;1.50;1.10;;;22.70;70.30;;;;;;5053828;28;20440;-84
2023/11/14 02:46:35;;;;;;;1.80;1.10;;;22.70;70.40;;;;;;5053645;28;20461;-85
2023/11/14 02:49:16;;;;;;;1.50;1.27;;;22.70;70.40;;;;;;5053676;28;20433;-85
2023/11/14 02:51:42;;;;;;;2.53;1.33;;;22.70;70.40;;;;;;5053487;28;20440;-85
2023/11/14 02:54:09;;;;;;;1.70;1.07;;;22.70;70.40;;;;;;5053866;28;20440;-85
2023/11/14 02:56:36;;;;;;;2.20;1.23;;;22.70;70.40;;;;;;5053948;28;20436;-84
2023/11/14 02:59:04;;;;;;;1.90;1.30;;;22.70;71.20;;;;;;5053305;28;20481;-84
2023/11/14 03:01:32;;;;;;;1.73;1.27;;;22.70;70.40;;;;;;5053290;28;20838;-84
2023/11/14 03:03:59;;;;;;;1.80;1.40;;;22.70;70.40;;;;;;5053463;28;20433;-85
2023/11/14 03:06:26;;;;;;;3.10;1.40;;;22.70;70.40;;;;;;5053531;28;20788;-84
2023/11/14 03:08:53;;;;;;;1.70;1.40;;;22.60;70.30;;;;;;5053681;28;20447;-85
2023/11/14 03:11:19;;;;;;;1.77;1.30;;;22.60;70.30;;;;;;5053316;28;20475;-85
2023/11/14 03:13:46;;;;;;;1.63;1.10;;;22.70;70.40;;;;;;5052808;28;20476;-85
2023/11/14 03:16:14;;;;;;;1.97;1.37;;;22.60;70.30;;;;;;5053389;28;20488;-84
2023/11/14 03:18:42;;;;;;;1.97;1.03;;;22.60;70.40;;;;;;5053305;28;20448;-85
2023/11/14 03:21:09;;;;;;;1.63;1.00;;;22.60;70.40;;;;;;5053630;28;20528;-85
2023/11/14 03:23:36;;;;;;;2.53;1.27;;;22.60;70.50;;;;;;5052590;28;20461;-84
2023/11/14 03:26:03;;;;;;;2.10;1.10;;;22.60;70.50;;;;;;5053026;28;20814;-84
2023/11/14 03:28:30;;;;;;;2.37;1.30;;;22.60;70.40;;;;;;5053563;28;20520;-85
2023/11/14 03:30:59;;;;;;;1.57;1.17;;;22.60;70.50;;;;;;5053100;28;20444;-84
2023/11/14 03:33:25;;;;;;;2.93;1.47;;;22.60;70.50;;;;;;5052958;28;20449;-85
2023/11/14 03:35:53;;;;;;;2.10;1.37;;;22.60;70.50;;;;;;5053546;28;20440;-85
2023/11/14 03:38:20;;;;;;;1.77;1.30;;;22.60;70.50;;;;;;5053331;28;20516;-84
2023/11/14 03:40:47;;;;;;;1.50;1.30;;;22.60;70.50;;;;;;5053193;28;20491;-85
2023/11/14 03:43:14;;;;;;;1.90;1.23;;;22.50;70.40;;;;;;5053050;28;20796;-85
2023/11/14 03:45:41;;;;;;;2.00;1.30;;;22.50;70.50;;;;;;5052991;28;20437;-84
2023/11/14 03:48:08;;;;;;;1.73;1.00;;;22.50;70.50;;;;;;5052888;28;20444;-85
2023/11/14 03:50:35;;;;;;;2.47;1.30;;;22.50;70.50;;;;;;5052878;28;20437;-84
2023/11/14 03:53:03;;;;;;;2.83;1.50;;;22.50;71.40;;;;;;5053226;28;20520;-85
2023/11/14 03:55:29;;;;;;;2.53;1.30;;;22.50;70.60;;;;;;5052827;28;20440;-83
2023/11/14 03:57:56;;;;;;;1.50;1.07;;;22.50;70.60;;;;;;5053038;28;20820;-85
2023/11/14 04:00:23;;;;;;;2.80;1.50;;;22.50;70.50;;;;;;5052926;28;20488;-85
2023/11/14 04:02:50;;;;;;;1.97;1.50;;;22.50;70.50;;;;;;5052705;28;20463;-84
2023/11/14 04:05:17;;;;;;;1.60;1.37;;;22.60;70.50;;;;;;5052934;28;20516;-84
2023/11/14 04:07:43;;;;;;;2.53;1.13;;;22.50;70.40;;;;;;5052834;28;20443;-85
2023/11/14 04:10:14;;;;;;;2.27;1.63;;;22.50;70.40;;;;;;5052825;28;20445;-84
2023/11/14 04:12:40;;;;;;;2.00;1.30;;;22.50;70.40;;;;;;5052554;28;20512;-84
2023/11/14 04:15:08;;;;;;;1.90;1.53;;;22.50;70.40;;;;;;5052967;28;20479;-85
2023/11/14 04:17:35;;;;;;;1.30;1.07;;;22.50;70.40;;;;;;5052908;28;20855;-84
2023/11/14 04:20:02;;;;;;;3.43;1.37;;;22.50;70.50;;;;;;5052627;28;21087;-85
2023/11/14 04:22:29;;;;;;;1.70;1.20;;;22.50;70.50;;;;;;5052059;28;20433;-84
2023/11/14 04:24:58;;;;;;;3.93;1.93;;;22.50;70.50;;;;;;5053553;28;20437;-84
2023/11/14 04:27:26;;;;;;;2.33;1.20;;;22.50;71.40;;;;;;5056135;28;20540;-85
2023/11/14 04:29:53;;;;;;;1.90;1.00;;;22.50;70.60;;;;;;5056333;28;20456;-84
2023/11/14 04:32:20;;;;;;;2.23;1.13;;;22.50;70.60;;;;;;5056130;28;20544;-84
2023/11/14 04:34:46;;;;;;;1.50;1.10;;;22.50;70.50;;;;;;5056057;28;20448;-85
2023/11/14 04:37:13;;;;;;;3.10;1.67;;;22.50;70.50;;;;;;5056200;28;20513;-84
2023/11/14 04:39:40;;;;;;;2.63;1.70;;;22.50;70.50;;;;;;5056232;28;20495;-85
2023/11/14 04:42:07;;;;;;;3.23;1.77;;;22.50;70.50;;;;;;5056026;28;20928;-84
2023/11/14 04:44:35;;;;;;;3.30;1.60;;;22.50;70.40;;;;;;5055899;28;20813;-84
2023/11/14 04:47:02;;;;;;;2.70;1.30;;;22.50;70.50;;;;;;5055939;28;20433;-84
2023/11/14 04:49:29;;;;;;;2.07;1.30;;;22.50;70.50;;;;;;5056031;28;20444;-85
2023/11/14 04:51:56;;;;;;;1.93;1.17;;;22.50;70.50;;;;;;5055741;28;20450;-84
2023/11/14 04:54:22;;;;;;;1.70;1.10;;;22.50;70.50;;;;;;5055777;28;20925;-85
2023/11/14 04:56:49;;;;;;;1.30;1.00;;;22.50;70.50;;;;;;5055875;28;20456;-84
2023/11/14 04:59:16;;;;;;;1.30;1.07;;;22.50;70.50;;;;;;5055519;28;20520;-85
2023/11/14 05:01:44;;;;;;;2.57;1.20;;;22.50;70.50;;;;;;5055512;28;21007;-84
2023/11/14 05:04:11;;;;;;;1.30;1.03;;;22.50;70.50;;;;;;5055641;28;20504;-83
2023/11/14 05:06:38;;;;;;;2.40;1.70;;;22.50;70.40;;;;;;5055797;28;20804;-83
2023/11/14 05:09:05;;;;;;;2.20;1.00;;;22.50;70.40;;;;;;5055700;28;20433;-82
2023/11/14 05:11:36;;;;;;;1.70;1.07;;;22.50;70.50;;;;;;5055191;28;20504;-85
2023/11/14 05:14:05;;;;;;;2.20;1.43;;;22.50;71.30;;;;;;5055392;28;20520;-84
2023/11/14 05:16:38;;;;;;;2.10;1.13;;;22.50;70.40;;;;;;5055310;28;20438;-85
2023/11/14 05:19:07;;;;;;;2.37;1.20;;;22.50;70.40;;;;;;5055565;28;20448;-84
2023/11/14 05:21:34;;;;;;;1.50;1.10;;;22.60;70.40;;;;;;5054643;28;20485;-85
2023/11/14 05:24:01;;;;;;;3.40;1.23;;;22.60;70.40;;;;;;5054991;28;20532;-85
2023/11/14 05:26:28;;;;;;;2.97;1.10;;;22.60;70.40;;;;;;5055198;28;20433;-84
2023/11/14 05:28:54;;;;;;;3.20;1.30;;;22.60;70.40;;;;;;5055365;28;20441;-85
2023/11/14 05:31:21;;;;;;;2.53;1.30;;;22.60;70.30;;;;;;5055110;28;20439;-84
2023/11/14 05:33:50;;;;;;;2.60;1.80;;;22.60;70.30;;;;;;5055014;28;20460;-85
2023/11/14 05:36:19;;;;;;;1.97;1.30;;;22.60;70.30;;;;;;5054529;28;20503;-85
2023/11/14 05:38:46;;;;;;;1.60;1.30;;;22.60;70.20;;;;;;5054936;28;20532;-87
2023/11/14 05:41:14;;;;;;;2.63;1.20;;;22.60;70.20;;;;;;5054738;28;20837;-85
2023/11/14 05:43:40;;;;;;;3.20;1.43;;;22.70;70.20;;;;;;5054811;28;20433;-85
2023/11/14 05:46:07;;;;;;;2.03;1.30;;;22.70;70.10;;;;;;5054954;28;20489;-84
2023/11/14 05:48:34;;;;;;;1.40;1.30;;;22.60;69.80;;;;;;5054961;28;20453;-84
2023/11/14 05:51:01;;;;;;;3.23;1.60;;;22.60;70.10;;;;;;5055192;28;20448;-86
2023/11/14 05:53:29;;;;;;;3.77;1.20;;;22.60;70.10;;;;;;5056945;28;20523;-88
2023/11/14 05:55:56;;;;;;;2.73;2.00;;;22.70;70.40;;;;;;5054563;28;20889;-85
2023/11/14 05:58:23;;;;;;;3.00;1.60;;;22.60;69.30;;;;;;5054698;28;20430;-85
2023/11/14 06:00:50;;;;;;;1.83;1.20;;;22.60;70.00;;;;;;5054178;28;20592;-85
2023/11/14 06:03:17;;;;;;;3.97;1.70;;;22.60;70.20;;;;;;5053673;28;20556;-92
2023/11/14 06:05:45;;;;;;;2.90;1.47;;;22.70;70.50;;;;;;5053169;28;20435;-84
2023/11/14 06:08:11;;;;;;;2.10;1.27;;;22.70;70.40;;;;;;5054047;28;20781;-90
2023/11/14 06:10:39;;;;;;;5.00;1.27;;;22.70;70.50;;;;;;5053799;28;20449;-84
2023/11/14 06:13:06;;;;;;;6.53;1.40;;;22.70;70.50;;;;;;5033833;28;20431;-86
2023/11/14 06:15:33;;;;;;;3.67;1.40;;;22.70;69.80;;;;;;5033714;28;20474;-86
2023/11/14 06:18:00;;;;;;;5.70;1.57;;;22.70;68.60;;;;;;5034377;28;20426;-86
2023/11/14 06:20:27;;;;;;;2.40;1.27;;;22.70;68.40;;;;;;5034422;28;20486;-93
2023/11/14 06:22:53;;;;;;;1.87;1.30;;;22.60;68.70;;;;;;5033830;28;20448;-84
2023/11/14 06:25:21;;;;;;;2.77;1.20;;;22.60;69.80;;;;;;5034077;28;20441;-85
2023/11/14 06:27:49;;;;;;;2.83;1.50;;;22.60;70.00;;;;;;5034246;28;20442;-85
2023/11/14 06:30:16;;;;;;;4.63;1.70;;;22.80;70.20;;;;;;5033885;28;20537;-85
2023/11/14 06:32:43;;;;;;;1.93;1.20;;;22.70;70.10;;;;;;5033771;28;20465;-86
2023/11/14 06:35:10;;;;;;;3.33;1.47;;;22.70;70.10;;;;;;5033995;28;20434;-85
2023/11/14 06:37:37;;;;;;;2.67;1.47;;;22.70;70.00;;;;;;5033951;28;20522;-85
2023/11/14 06:40:05;;;;;;;5.33;1.70;;;22.70;70.30;;;;;;5033829;28;20481;-85
2023/11/14 06:42:32;;;;;;;2.40;1.30;;;22.70;70.30;;;;;;5033836;28;20435;-85
2023/11/14 06:45:00;;;;;;;4.00;1.50;;;22.70;70.30;;;;;;5033997;28;20442;-84
2023/11/14 06:47:28;;;;;;;3.23;1.00;;;22.70;69.90;;;;;;5033175;28;20438;-85
2023/11/14 06:49:55;;;;;;;6.00;1.50;;;22.80;70.40;;;;;;5033825;28;20430;-85
2023/11/14 06:52:22;;;;;;;2.50;1.63;;;22.70;70.20;;;;;;5033745;28;20453;-84
2023/11/14 06:54:48;;;;;;;3.13;1.97;;;22.70;70.10;;;;;;5033953;28;20434;-85
2023/11/14 06:57:15;;;;;;;4.20;1.73;;;22.70;70.10;;;;;;5033821;28;20534;-85
2023/11/14 06:59:42;;;;;;;3.10;1.50;;;22.80;70.20;;;;;;5033495;28;20434;-84
2023/11/14 07:02:11;;;;;;;2.57;1.43;;;22.80;70.30;;;;;;5033736;28;20977;-85
2023/11/14 07:04:37;;;;;;;3.47;1.53;;;22.80;70.20;;;;;;5033454;28;20447;-85
2023/11/14 07:07:05;;;;;;;4.80;1.70;;;22.80;70.30;;;;;;5033463;28;20504;-84
2023/11/14 07:09:31;;;;;;;4.17;1.90;;;22.80;70.10;;;;;;5033572;28;20445;-85
2023/11/14 07:11:58;;;;;;;2.00;1.20;;;22.80;70.20;;;;;;5044356;28;20480;-84
2023/11/14 07:14:26;;;;;;;5.63;1.77;;;22.80;70.20;;;;;;5053582;28;20520;-84
2023/11/14 07:16:53;;;;;;;4.63;1.50;;;22.80;70.10;;;;;;5053213;28;20499;-84
2023/11/14 07:19:21;;;;;;;2.30;1.43;;;22.80;70.10;;;;;;5053256;28;20456;-84
2023/11/14 07:21:48;;;;;;;3.20;1.40;;;22.80;70.20;;;;;;5052810;28;20489;-84
2023/11/14 07:24:16;;;;;;;2.50;1.37;;;22.80;70.20;;;;;;5052667;28;20437;-85
2023/11/14 07:26:44;;;;;;;2.33;1.20;;;22.80;70.10;;;;;;5053273;28;20437;-84
2023/11/14 07:29:13;;;;;;;2.20;1.30;;;22.80;70.10;;;;;;5053302;28;20437;-84
2023/11/14 07:31:41;;;;;;;2.00;1.07;;;22.80;70.00;;;;;;5053039;28;20464;-84
2023/11/14 07:34:08;;;;;;;1.50;1.30;;;22.90;70.10;;;;;;5053044;28;20471;-84
2023/11/14 07:36:36;;;;;;;2.73;1.60;;;22.80;70.00;;;;;;5053300;28;20994;-85
2023/11/14 07:39:05;;;;;;;2.60;1.13;;;22.80;69.90;;;;;;5053189;28;20437;-84
2023/11/14 07:41:32;;;;;;;1.60;1.40;;;22.80;70.90;;;;;;5052894;28;20527;-83
2023/11/14 07:43:59;;;;;;;1.87;1.33;;;22.80;70.00;;;;;;5053058;28;20433;-84
2023/11/14 07:46:25;;;;;;;1.50;1.30;;;22.90;70.10;;;;;;5053112;28;20797;-84
2023/11/14 07:48:52;;;;;;;1.50;1.20;;;22.90;70.00;;;;;;5052982;28;20429;-83
2023/11/14 07:51:20;;;;;;;2.30;1.20;;;22.90;69.90;;;;;;5052905;28;20433;-84
2023/11/14 07:53:49;;;;;;;3.03;1.43;;;22.90;70.10;;;;;;5052758;28;20467;-84
2023/11/14 07:56:16;;;;;;;2.43;1.23;;;22.90;70.10;;;;;;5053117;28;20793;-85
2023/11/14 07:58:43;;;;;;;2.33;1.10;;;22.90;70.00;;;;;;5053806;28;20440;-84
2023/11/14 08:01:10;;;;;;;1.70;1.30;;;22.90;70.00;;;;;;5056670;28;20489;-84
2023/11/14 08:03:37;;;;;;;2.10;1.43;;;22.90;70.00;;;;;;5057277;28;20453;-83
2023/11/14 08:06:04;;;;;;;1.90;1.07;;;22.90;70.00;;;;;;5056584;28;20454;-83
2023/11/14 08:08:32;;;;;;;5.37;1.43;;;22.90;70.00;;;;;;5056714;28;20807;-91
2023/11/14 08:11:02;;;;;;;1.83;1.23;;;22.90;70.00;;;;;;5056132;28;20879;-84
2023/11/14 08:13:28;;;;;;;2.00;1.20;;;22.90;70.00;;;;;;5056716;28;20437;-83
2023/11/14 08:15:55;;;;;;;1.83;1.00;;;22.90;70.10;;;;;;5056395;28;20437;-84
2023/11/14 08:18:22;;;;;;;2.37;1.40;;;22.90;70.00;;;;;;5056470;28;20433;-83
2023/11/14 08:20:49;;;;;;;3.93;1.53;;;22.90;70.00;;;;;;5056384;28;20477;-84
2023/11/14 08:23:17;;;;;;;3.80;1.60;;;22.90;70.00;;;;;;5064800;28;20451;-84
2023/11/14 08:25:43;;;;;;;5.43;1.43;;;22.90;70.00;;;;;;5063240;28;20449;-84
2023/11/14 08:28:12;;;;;;;2.53;1.60;;;22.90;70.00;;;;;;5056130;28;20441;-84
2023/11/14 08:30:38;;;;;;;3.00;1.00;;;22.90;70.10;;;;;;5056243;28;20441;-84
2023/11/14 08:33:07;;;;;;;2.33;1.60;;;22.90;70.00;;;;;;5056309;28;20461;-84
2023/11/14 08:35:34;;;;;;;2.00;1.40;;;22.90;70.00;;;;;;5056147;28;20448;-85
2023/11/14 08:38:01;;;;;;;1.80;1.00;;;22.90;70.00;;;;;;5056436;28;20441;-84
2023/11/14 08:40:28;;;;;;;2.50;1.43;;;22.90;70.00;;;;;;5056200;28;20964;-84
2023/11/14 08:42:55;;;;;;;3.90;1.67;;;22.90;69.90;;;;;;5055988;28;20441;-84
2023/11/14 08:45:24;;;;;;;3.17;1.97;;;22.90;69.80;;;;;;5056068;28;20445;-84
2023/11/14 08:47:51;;;;;;;2.00;1.27;;;22.90;69.90;;;;;;5056375;28;20448;-84
2023/11/14 08:50:18;;;;;;;2.60;1.20;;;23.00;69.90;;;;;;5055338;28;20451;-86
2023/11/14 08:52:46;;;;;;;1.87;1.07;;;22.90;69.90;;;;;;5055550;28;20446;-84
2023/11/14 08:55:13;;;;;;;1.50;1.20;;;23.00;69.80;;;;;;5055818;28;20840;-89
2023/11/14 08:57:40;;;;;;;2.60;1.43;;;23.00;69.60;;;;;;5035697;28;20540;-89
2023/11/14 09:00:10;;;;;;;1.97;1.40;;;22.90;67.10;;;;;;5035805;28;20883;-89
2023/11/14 09:02:38;;;;;;;1.70;1.23;;;22.80;66.50;;;;;;5035556;28;20497;-89
2023/11/14 09:05:09;;;;;;;1.93;1.00;;;22.70;66.60;;;;;;5035802;28;20446;-89
2023/11/14 09:07:36;;;;;;;2.00;1.30;;;22.70;67.00;;;;;;5035956;28;20446;-89
2023/11/14 09:10:03;;;;;;;2.57;1.50;;;22.60;67.10;;;;;;5034931;28;20459;-89
2023/11/14 09:12:32;;;;;;;4.30;1.37;;;22.50;67.20;;;;;;5035207;28;20466;-89
2023/11/14 09:14:58;;;;;;;2.67;1.50;;;22.50;67.40;;;;;;5035385;28;20541;-89
2023/11/14 09:17:25;;;;;;;3.10;1.57;;;22.50;67.40;;;;;;5035825;28;20450;-89
2023/11/14 09:19:53;;;;;;;2.33;1.43;;;22.40;67.40;;;;;;5034809;28;20558;-93
2023/11/14 09:22:20;;;;;;;3.10;1.53;;;22.40;67.90;;;;;;5033934;28;20496;-83
2023/11/14 09:24:48;;;;;;;2.70;1.60;;;22.40;68.90;;;;;;5034040;28;20445;-83
2023/11/14 09:27:15;;;;;;;2.37;1.40;;;22.50;69.20;;;;;;5035478;28;20533;-91
2023/11/14 09:29:41;;;;;;;1.97;1.20;;;22.60;69.40;;;;;;5057983;28;20789;-84
2023/11/14 09:32:08;;;;;;;4.87;2.03;;;22.60;69.30;;;;;;5055659;28;20469;-84
2023/11/14 09:34:35;;;;;;;2.73;1.27;;;22.60;69.30;;;;;;5056972;28;20456;-84
2023/11/14 09:37:04;;;;;;;3.47;1.40;;;22.70;69.20;;;;;;5074655;28;20459;-84
2023/11/14 09:39:31;;;;;;;1.60;1.00;;;22.70;69.20;;;;;;5074718;28;20440;-84
2023/11/14 09:41:58;;;;;;;3.10;1.43;;;22.80;69.10;;;;;;5074747;28;20822;-84
2023/11/14 09:44:26;;;;;;;3.23;1.47;;;22.80;69.00;;;;;;5074781;28;20440;-84
2023/11/14 09:46:55;;;;;;;2.93;1.40;;;22.80;68.90;;;;;;5075031;28;20783;-84
2023/11/14 09:49:22;;;;;;;3.50;1.50;;;22.80;69.00;;;;;;5074688;28;20445;-84
2023/11/14 09:51:50;;;;;;;3.17;1.23;;;22.90;69.10;;;;;;5073719;28;20432;-84
2023/11/14 09:54:18;;;;;;;3.03;1.20;;;22.90;69.00;;;;;;5073823;28;20470;-84
2023/11/14 09:56:47;;;;;;;2.27;1.40;;;22.90;69.00;;;;;;5073494;28;20449;-84
2023/11/14 09:59:14;;;;;;;4.30;1.20;;;22.90;69.10;;;;;;5073481;28;20506;-84
2023/11/14 10:01:42;;;;;;;2.40;1.30;;;22.90;69.10;;;;;;5073462;28;20502;-84
2023/11/14 10:04:10;;;;;;;3.43;1.80;;;22.90;69.00;;;;;;5073409;28;20479;-84
2023/11/14 10:06:40;;;;;;;2.17;1.60;;;22.90;69.00;;;;;;5074260;28;20446;-84
2023/11/14 10:09:09;;;;;;;5.50;1.60;;;22.90;69.00;;;;;;5074592;28;20432;-84
2023/11/14 10:11:45;;;;;;;3.13;1.33;;;22.90;69.00;;;;;;5074224;28;20479;-84
2023/11/14 10:14:12;;;;;;;1.30;1.20;;;22.90;68.90;;;;;;5074449;28;20454;-84
2023/11/14 10:16:39;;;;;;;1.70;1.17;;;22.90;69.00;;;;;;5074306;28;20436;-84
2023/11/14 10:19:14;;;;;;;1.90;1.10;;;22.90;68.90;;;;;;5074155;28;20535;-84
2023/11/14 10:21:41;;;;;;;2.87;1.47;;;22.90;68.90;;;;;;5073517;28;21024;-83
2023/11/14 10:24:12;;;;;;;2.10;1.10;;;22.90;68.90;;;;;;5073547;28;20436;-84
2023/11/14 10:26:52;;;;;;;3.77;1.20;;;22.90;68.90;;;;;;5074114;28;20444;-84
2023/11/14 10:29:20;;;;;;;1.80;1.20;;;22.90;68.80;;;;;;5074129;28;20440;-83
2023/11/14 10:31:47;;;;;;;2.53;1.40;;;22.90;69.00;;;;;;5073982;28;20460;-84
2023/11/14 10:34:28;;;;;;;4.70;1.40;;;22.90;68.90;;;;;;5073998;28;20440;-84
2023/11/14 10:36:56;;;;;;;1.50;1.00;;;22.90;68.80;;;;;;5074028;28;20804;-84
2023/11/14 10:39:23;;;;;;;2.07;1.47;;;22.90;68.80;;;;;;5073698;28;20437;-84
2023/11/14 10:41:52;;;;;;;2.60;1.30;;;22.90;68.90;;;;;;5073850;28;20488;-84
2023/11/14 10:44:21;;;;;;;1.93;1.20;;;22.90;68.80;;;;;;5073850;28;20456;-95
2023/11/14 10:46:49;;;;;;;2.70;1.37;;;22.90;68.80;;;;;;5074209;28;20452;-95
2023/11/14 10:49:17;;;;;;;2.57;1.90;;;22.90;66.90;;;;;;5075168;28;20429;-96
2023/11/14 10:51:45;;;;;;;3.00;1.30;;;22.80;67.20;;;;;;5074452;28;20447;-95
2023/11/14 10:54:13;;;;;;;1.63;1.43;;;22.80;66.70;;;;;;5074212;28;20444;-95
2023/11/14 10:56:40;;;;;;;4.37;1.77;;;22.70;66.80;;;;;;5059497;28;20516;-85
2023/11/14 10:59:12;;;;;;;2.83;1.30;;;22.60;67.50;;;;;;5052975;28;20441;-84
2023/11/14 11:01:40;;;;;;;5.37;1.90;;;22.70;68.40;;;;;;5052939;28;20481;-85
2023/11/14 11:04:08;;;;;;;3.70;1.60;;;22.70;68.60;;;;;;5052744;28;20441;-86
2023/11/14 11:06:35;;;;;;;2.43;1.30;;;22.80;68.70;;;;;;5053539;28;20866;-85
2023/11/14 11:09:05;;;;;;;4.57;1.80;;;22.90;69.50;;;;;;5053423;28;20457;-85
2023/11/14 11:11:34;;;;;;;3.90;2.00;;;23.00;68.60;;;;;;5053207;28;20469;-84
2023/11/14 11:14:04;;;;;;;3.10;1.30;;;23.00;68.50;;;;;;5052425;28;20532;-85
2023/11/14 11:16:42;;;;;;;2.50;1.53;;;23.00;68.60;;;;;;5052433;28;20516;-85
2023/11/14 11:19:10;;;;;;;3.10;1.37;;;23.10;68.70;;;;;;5052609;28;20441;-85
2023/11/14 11:21:37;;;;;;;2.83;1.67;;;23.10;68.70;;;;;;5052480;28;20503;-85
2023/11/14 11:24:09;;;;;;;5.00;2.07;;;23.10;68.80;;;;;;5052176;28;20441;-85
2023/11/14 11:27:09;;;;;;;4.03;1.43;;;23.10;68.70;;;;;;5052393;28;20453;-85
2023/11/14 11:30:08;;;;;;;1.70;1.03;;;23.10;68.70;;;;;;5052251;28;20445;-85
2023/11/14 11:32:37;;;;;;;2.90;1.27;;;23.20;68.70;;;;;;5040842;28;20992;-85
2023/11/14 11:35:27;;;;;;;3.20;1.90;;;23.20;68.80;;;;;;5055747;28;20443;-85
2023/11/14 11:37:56;;;;;;;4.30;1.70;;;23.20;68.80;;;;;;5057550;28;20473;-85
2023/11/14 11:40:25;;;;;;;3.00;1.53;;;23.20;69.80;;;;;;5057136;28;20437;-85
2023/11/14 11:42:56;;;;;;;2.67;1.30;;;23.20;68.90;;;;;;5056951;28;20484;-85
2023/11/14 11:45:34;;;;;;;2.47;1.33;;;23.20;68.90;;;;;;5057118;28;20437;-85
2023/11/14 11:48:03;;;;;;;1.97;1.40;;;23.30;69.90;;;;;;5057288;28;20793;-85
2023/11/14 11:50:32;;;;;;;5.47;1.20;;;23.30;69.00;;;;;;5057718;28;20464;-85
2023/11/14 11:53:00;;;;;;;2.13;1.13;;;23.30;69.10;;;;;;5057042;28;20440;-84
2023/11/14 11:55:27;;;;;;;3.47;1.53;;;23.20;69.00;;;;;;5056880;28;20537;-85
2023/11/14 11:57:59;;;;;;;4.93;1.43;;;23.20;69.00;;;;;;5057055;28;20437;-85
2023/11/14 12:00:26;;;;;;;2.60;1.20;;;23.20;69.10;;;;;;5057060;28;20432;-85
2023/11/14 12:02:54;;;;;;;1.30;1.10;;;23.20;69.10;;;;;;5056950;28;20571;-85
2023/11/14 12:05:23;;;;;;;3.20;1.30;;;23.20;69.10;;;;;;5056756;28;20453;-85
2023/11/14 12:07:50;;;;;;;1.63;1.23;;;23.20;69.20;;;;;;5057038;28;20473;-85
2023/11/14 12:10:18;;;;;;;3.63;1.30;;;23.20;69.20;;;;;;5056674;28;20441;-92
2023/11/14 12:12:45;;;;;;;3.37;1.50;;;23.20;69.20;;;;;;5056281;28;20469;-85
2023/11/14 12:15:16;;;;;;;3.30;1.43;;;23.20;69.20;;;;;;5056686;28;20499;-85
2023/11/14 12:17:47;;;;;;;1.40;1.00;;;23.20;70.20;;;;;;5056811;28;20441;-93
2023/11/14 12:20:14;;;;;;;1.57;1.13;;;23.20;69.30;;;;;;5056660;28;20437;-86
2023/11/14 12:22:46;;;;;;;2.73;1.20;;;23.20;69.40;;;;;;5056642;28;20489;-85
2023/11/14 12:25:14;;;;;;;4.83;1.50;;;23.20;69.40;;;;;;5056515;28;20450;-85
2023/11/14 12:27:41;;;;;;;2.03;1.20;;;23.20;69.50;;;;;;5057105;28;20437;-85
2023/11/14 12:30:09;;;;;;;2.00;1.10;;;23.20;69.50;;;;;;5056390;28;20438;-85
2023/11/14 12:32:37;;;;;;;2.90;1.33;;;23.20;69.50;;;;;;5056210;28;20992;-85
2023/11/14 12:35:04;;;;;;;1.70;1.10;;;23.20;69.50;;;;;;5056120;28;20449;-85
2023/11/14 12:37:31;;;;;;;1.67;0.90;;;23.20;69.50;;;;;;5056251;28;20492;-85
2023/11/14 12:40:20;;;;;;;1.87;1.20;;;23.20;69.40;;;;;;5056300;28;20433;-85
2023/11/14 12:42:47;;;;;;;1.80;1.40;;;23.20;69.40;;;;;;5056245;28;20481;-84
2023/11/14 12:45:14;;;;;;;3.63;1.03;;;23.20;69.50;;;;;;5054912;28;20437;-85
2023/11/14 12:47:41;;;;;;;3.33;1.60;;;23.20;69.50;;;;;;5056092;28;20441;-85
2023/11/14 12:50:09;;;;;;;2.40;1.47;;;23.20;69.50;;;;;;5056032;28;20446;-85
2023/11/14 12:52:38;;;;;;;7.03;1.43;;;23.20;69.50;;;;;;5055801;28;20492;-85